Time;durP1;ratioP1;P1;durP2;ratioP2;P2;SDS_P1;SDS_P2;PMS_P1;PMS_P2;Temp;Humidity;BMP_temperature;BMP_pressure;BME280_temperature;BME280_humidity;BME280_pressure;Samples;Min_cycle;Max_cycle;Signal;HPM_P1;HPM_P2
2023/04/04 00:01:32;;;;;;;6.28;2.25;;;3.70;99.90;;;;;;5019879;28;20041;-62
2023/04/04 00:03:58;;;;;;;6.85;2.55;;;3.70;99.90;;;;;;5036009;28;20037;-59
2023/04/04 00:06:24;;;;;;;6.78;2.50;;;3.70;99.90;;;;;;5034272;28;20079;-61
2023/04/04 00:08:50;;;;;;;4.43;2.33;;;3.70;99.90;;;;;;5027904;28;20164;-61
2023/04/04 00:11:15;;;;;;;6.20;2.63;;;3.70;99.90;;;;;;5045558;28;20037;-61
2023/04/04 00:13:41;;;;;;;5.78;2.65;;;3.60;99.90;;;;;;5011384;28;20055;-61
2023/04/04 00:16:07;;;;;;;5.22;3.28;;;3.60;99.90;;;;;;5044914;28;20056;-60
2023/04/04 00:18:33;;;;;;;5.90;2.65;;;3.60;99.90;;;;;;5037177;28;20053;-60
2023/04/04 00:20:58;;;;;;;4.03;2.03;;;3.60;99.90;;;;;;5039881;28;20037;-61
2023/04/04 00:23:24;;;;;;;5.85;2.40;;;3.60;99.90;;;;;;5044258;28;20112;-61
2023/04/04 00:25:53;;;;;;;5.85;2.50;;;3.60;99.90;;;;;;5025596;28;20036;-61
2023/04/04 00:28:20;;;;;;;5.75;2.17;;;3.50;99.90;;;;;;5025502;28;20583;-61
2023/04/04 00:30:45;;;;;;;6.45;2.40;;;3.50;99.90;;;;;;5029022;28;20055;-61
2023/04/04 00:33:12;;;;;;;5.45;2.60;;;3.40;99.90;;;;;;5045186;28;20041;-61
2023/04/04 00:35:38;;;;;;;5.65;2.92;;;3.40;99.90;;;;;;5028351;28;20040;-61
2023/04/04 00:38:04;;;;;;;4.63;2.25;;;3.40;99.90;;;;;;5030256;28;20037;-61
2023/04/04 00:40:30;;;;;;;6.85;2.92;;;3.40;99.90;;;;;;5029221;28;20099;-61
2023/04/04 00:42:59;;;;;;;7.57;2.92;;;3.30;99.90;;;;;;5051922;28;20219;-61
2023/04/04 00:45:26;;;;;;;5.68;2.50;;;3.30;99.90;;;;;;5042492;28;20040;-61
2023/04/04 00:47:54;;;;;;;7.28;2.90;;;3.30;99.90;;;;;;5006248;28;20045;-60
2023/04/04 00:50:19;;;;;;;5.68;2.40;;;3.20;99.90;;;;;;5045077;28;20037;-61
2023/04/04 00:52:45;;;;;;;6.15;2.78;;;3.20;99.90;;;;;;5033710;28;20048;-61
2023/04/04 00:55:11;;;;;;;8.05;3.22;;;3.20;99.90;;;;;;5031400;28;20608;-61
2023/04/04 00:57:37;;;;;;;6.80;2.83;;;3.20;99.90;;;;;;5021111;28;20083;-61
2023/04/04 01:00:05;;;;;;;5.88;3.15;;;3.20;99.90;;;;;;5051851;28;20068;-60
2023/04/04 01:02:31;;;;;;;6.82;2.70;;;3.10;99.90;;;;;;5012998;28;20094;-61
2023/04/04 01:04:57;;;;;;;6.05;2.78;;;3.10;99.90;;;;;;5049098;28;20033;-61
2023/04/04 01:07:23;;;;;;;6.28;2.63;;;3.10;99.90;;;;;;5032012;28;20057;-60
2023/04/04 01:09:49;;;;;;;4.28;2.53;;;3.00;99.90;;;;;;5047364;28;20043;-61
2023/04/04 01:12:15;;;;;;;4.72;2.72;;;3.00;99.90;;;;;;5042973;28;20044;-62
2023/04/04 01:14:41;;;;;;;6.90;2.30;;;3.00;99.90;;;;;;5045503;28;20409;-61
2023/04/04 01:17:07;;;;;;;5.95;2.58;;;2.90;99.90;;;;;;5052710;28;20032;-61
2023/04/04 01:19:37;;;;;;;8.38;2.60;;;2.90;99.90;;;;;;5014770;28;20412;-60
2023/04/04 01:22:04;;;;;;;6.63;2.85;;;2.90;99.90;;;;;;5024794;28;20607;-61
2023/04/04 01:24:33;;;;;;;6.45;2.75;;;2.90;99.90;;;;;;5008352;28;20056;-61
2023/04/04 01:27:02;;;;;;;5.75;2.63;;;2.90;99.90;;;;;;5037655;28;20048;-60
2023/04/04 01:29:28;;;;;;;6.72;3.25;;;2.90;99.90;;;;;;5051778;28;20037;-61
2023/04/04 01:32:07;;;;;;;6.47;3.00;;;2.90;99.90;;;;;;5028541;28;20033;-61
2023/04/04 01:34:46;;;;;;;5.60;2.83;;;2.90;99.90;;;;;;5015280;28;20075;-61
2023/04/04 01:37:35;;;;;;;4.32;3.00;;;3.00;99.90;;;;;;5048363;28;20055;-60
2023/04/04 01:40:22;;;;;;;5.78;2.97;;;2.90;99.90;;;;;;5041807;28;20097;-60
2023/04/04 01:42:50;;;;;;;8.13;3.50;;;2.90;99.90;;;;;;5051996;28;20036;-61
2023/04/04 01:45:16;;;;;;;7.35;3.53;;;2.90;99.90;;;;;;5048988;28;20067;-60
2023/04/04 01:47:42;;;;;;;6.80;3.35;;;2.90;99.90;;;;;;5043214;28;20369;-60
2023/04/04 01:50:09;;;;;;;7.95;3.80;;;2.90;99.90;;;;;;5013501;28;20095;-61
2023/04/04 01:52:36;;;;;;;7.15;3.55;;;2.90;99.90;;;;;;5042669;28;20037;-61
2023/04/04 01:55:03;;;;;;;7.63;3.47;;;2.90;99.90;;;;;;5031542;28;20036;-61
2023/04/04 01:57:29;;;;;;;7.47;3.65;;;2.90;99.90;;;;;;5010295;28;20037;-62
2023/04/04 01:59:55;;;;;;;8.25;3.97;;;2.90;99.90;;;;;;5025829;28;20045;-60
2023/04/04 02:02:21;;;;;;;8.93;3.92;;;2.80;99.90;;;;;;5023357;28;20493;-61
2023/04/04 02:04:47;;;;;;;9.45;3.72;;;2.80;99.90;;;;;;5010533;28;20045;-60
2023/04/04 02:07:13;;;;;;;7.50;3.65;;;2.80;99.90;;;;;;5020222;28;20389;-61
2023/04/04 02:09:39;;;;;;;8.82;4.18;;;2.80;99.90;;;;;;5020636;28;20123;-61
2023/04/04 02:12:05;;;;;;;10.30;4.43;;;2.80;99.90;;;;;;5038569;28;20476;-61
2023/04/04 02:14:31;;;;;;;8.65;3.65;;;2.80;99.90;;;;;;5020815;28;20106;-61
2023/04/04 02:16:57;;;;;;;7.85;4.05;;;2.70;99.90;;;;;;5044732;28;20059;-61
2023/04/04 02:19:23;;;;;;;8.95;4.60;;;2.70;99.90;;;;;;5026740;28;20077;-60
2023/04/04 02:21:49;;;;;;;8.70;4.63;;;2.70;99.90;;;;;;5024664;28;20045;-60
2023/04/04 02:24:15;;;;;;;6.80;4.38;;;2.70;99.90;;;;;;5014088;28;20090;-62
2023/04/04 02:26:40;;;;;;;9.40;4.70;;;2.70;99.90;;;;;;5028554;28;20045;-61
2023/04/04 02:29:06;;;;;;;9.18;4.50;;;2.60;99.90;;;;;;5028474;28;20624;-61
2023/04/04 02:31:33;;;;;;;7.78;4.25;;;2.60;99.90;;;;;;5037127;28;20506;-61
2023/04/04 02:33:58;;;;;;;9.90;4.32;;;2.60;99.90;;;;;;5044110;28;20095;-62
2023/04/04 02:36:24;;;;;;;9.23;4.47;;;2.50;99.90;;;;;;5010135;28;20420;-61
2023/04/04 02:38:50;;;;;;;9.20;4.53;;;2.50;99.90;;;;;;5025759;28;20029;-62
2023/04/04 02:41:15;;;;;;;7.60;3.83;;;2.50;99.90;;;;;;5047217;28;20388;-61
2023/04/04 02:43:41;;;;;;;13.23;4.43;;;2.50;99.90;;;;;;5026174;28;20095;-61
2023/04/04 02:46:07;;;;;;;7.80;4.20;;;2.50;99.90;;;;;;5027893;28;20051;-61
2023/04/04 02:48:33;;;;;;;8.48;4.60;;;2.40;99.90;;;;;;5008253;28;20047;-61
2023/04/04 02:50:59;;;;;;;9.23;4.70;;;2.40;99.90;;;;;;5025296;28;20596;-61
2023/04/04 02:53:24;;;;;;;10.32;5.13;;;2.50;99.90;;;;;;5023882;28;20123;-62
2023/04/04 02:55:50;;;;;;;8.52;4.45;;;2.40;99.90;;;;;;5045833;28;20073;-60
2023/04/04 02:58:16;;;;;;;9.80;4.55;;;2.40;99.90;;;;;;5045602;28;20033;-61
2023/04/04 03:00:42;;;;;;;15.77;4.30;;;2.30;99.90;;;;;;5027098;28;20148;-61
2023/04/04 03:03:08;;;;;;;8.35;4.22;;;2.30;99.90;;;;;;5029127;28;20120;-61
2023/04/04 03:05:34;;;;;;;9.07;4.88;;;2.30;99.90;;;;;;5027538;28;20363;-61
2023/04/04 03:07:59;;;;;;;7.65;4.40;;;2.20;99.90;;;;;;5032008;28;20044;-62
2023/04/04 03:10:28;;;;;;;8.85;4.50;;;2.20;99.90;;;;;;5042998;28;20048;-60
2023/04/04 03:12:54;;;;;;;8.68;3.85;;;2.20;99.90;;;;;;5047801;28;20041;-60
2023/04/04 03:15:20;;;;;;;9.98;4.43;;;2.10;99.90;;;;;;5024607;28;20041;-60
2023/04/04 03:17:46;;;;;;;8.00;4.30;;;2.10;99.90;;;;;;5031433;28;20491;-60
2023/04/04 03:20:13;;;;;;;7.20;4.07;;;2.00;99.90;;;;;;5036893;28;20266;-61
2023/04/04 03:22:40;;;;;;;10.43;4.88;;;2.00;99.90;;;;;;5037093;28;20067;-60
2023/04/04 03:25:06;;;;;;;7.88;4.60;;;2.00;99.90;;;;;;5020588;28;20037;-60
2023/04/04 03:27:33;;;;;;;9.13;5.13;;;2.00;99.90;;;;;;5021098;28;20038;-62
2023/04/04 03:29:59;;;;;;;9.45;4.65;;;2.00;99.90;;;;;;5030853;28;20049;-61
2023/04/04 03:32:25;;;;;;;10.93;4.72;;;2.00;99.90;;;;;;5045386;28;20032;-61
2023/04/04 03:34:53;;;;;;;10.65;4.82;;;2.00;99.90;;;;;;5026576;28;20512;-61
2023/04/04 03:37:19;;;;;;;7.13;4.47;;;1.90;99.90;;;;;;5046967;28;20057;-61
2023/04/04 03:39:45;;;;;;;10.75;5.53;;;1.90;99.90;;;;;;5021210;28;20041;-61
2023/04/04 03:42:11;;;;;;;12.25;5.35;;;1.80;99.90;;;;;;5037335;28;20499;-61
2023/04/04 03:44:40;;;;;;;7.25;4.53;;;1.90;99.90;;;;;;5023658;28;20041;-61
2023/04/04 03:47:06;;;;;;;8.10;4.18;;;1.80;99.90;;;;;;5043955;28;20048;-61
2023/04/04 03:49:33;;;;;;;10.75;6.15;;;1.80;99.90;;;;;;5044454;28;20032;-60
2023/04/04 03:51:58;;;;;;;13.65;5.10;;;1.80;99.90;;;;;;5010272;28;20106;-61
2023/04/04 03:54:27;;;;;;;10.85;4.97;;;1.70;99.90;;;;;;5044901;28;20041;-61
2023/04/04 03:56:53;;;;;;;8.73;5.07;;;1.70;99.90;;;;;;5043907;28;20033;-61
2023/04/04 03:59:20;;;;;;;10.30;4.70;;;1.70;99.90;;;;;;5029522;28;20102;-61
2023/04/04 04:01:46;;;;;;;7.78;5.28;;;1.60;99.90;;;;;;5023772;28;20067;-61
2023/04/04 04:04:11;;;;;;;8.88;4.90;;;1.60;99.90;;;;;;5014825;28;20423;-61
2023/04/04 04:06:37;;;;;;;8.15;4.78;;;1.60;99.90;;;;;;5030235;28;20052;-61
2023/04/04 04:09:03;;;;;;;10.30;4.65;;;1.60;99.90;;;;;;5044223;28;20124;-61
2023/04/04 04:11:29;;;;;;;11.35;5.10;;;1.60;99.90;;;;;;5026318;28;20037;-62
2023/04/04 04:13:55;;;;;;;9.05;4.90;;;1.50;99.90;;;;;;5053467;28;20680;-61
2023/04/04 04:16:21;;;;;;;13.48;4.93;;;1.60;99.90;;;;;;5048062;28;20110;-61
2023/04/04 04:18:47;;;;;;;7.05;4.72;;;1.60;99.90;;;;;;5047477;28;20049;-60
2023/04/04 04:21:13;;;;;;;10.57;5.35;;;1.60;99.90;;;;;;5053030;28;20036;-61
2023/04/04 04:23:39;;;;;;;7.72;4.57;;;1.50;99.90;;;;;;5048881;28;20033;-61
2023/04/04 04:26:05;;;;;;;8.18;5.13;;;1.50;99.90;;;;;;5024990;28;20037;-61
2023/04/04 04:28:31;;;;;;;9.85;5.13;;;1.50;99.90;;;;;;5030342;28;20044;-61
2023/04/04 04:31:04;;;;;;;10.13;4.93;;;1.60;99.90;;;;;;5050583;28;20048;-61
2023/04/04 04:33:30;;;;;;;11.15;5.43;;;1.50;99.90;;;;;;5048706;28;20084;-60
2023/04/04 04:36:03;;;;;;;10.05;5.00;;;1.60;99.90;;;;;;5027101;28;20437;-61
2023/04/04 04:38:29;;;;;;;9.15;4.95;;;1.50;99.90;;;;;;5031018;28;20037;-58
2023/04/04 04:40:56;;;;;;;8.38;5.28;;;1.50;99.90;;;;;;5019711;28;20044;-61
2023/04/04 04:43:22;;;;;;;11.27;5.00;;;1.50;99.90;;;;;;5046061;28;20056;-61
2023/04/04 04:45:49;;;;;;;10.80;5.90;;;1.50;99.90;;;;;;5037914;28;20034;-62
2023/04/04 04:48:18;;;;;;;11.45;4.30;;;1.50;99.90;;;;;;5028592;28;20074;-61
2023/04/04 04:50:44;;;;;;;14.35;5.68;;;1.60;99.90;;;;;;5049902;28;20799;-62
2023/04/04 04:53:11;;;;;;;10.02;5.32;;;1.60;99.90;;;;;;5033741;28;20048;-62
2023/04/04 04:55:36;;;;;;;8.80;5.55;;;1.60;99.90;;;;;;5038301;28;20041;-62
2023/04/04 04:58:03;;;;;;;14.60;8.23;;;1.50;99.90;;;;;;5013165;28;20408;-61
2023/04/04 05:00:28;;;;;;;13.55;6.68;;;1.60;99.90;;;;;;5048547;28;20048;-61
2023/04/04 05:02:55;;;;;;;10.48;6.25;;;1.50;99.90;;;;;;5045288;28;20041;-61
2023/04/04 05:05:21;;;;;;;8.75;5.30;;;1.50;99.90;;;;;;5021427;28;20040;-61
2023/04/04 05:07:47;;;;;;;9.75;5.88;;;1.50;99.90;;;;;;5013859;28;20048;-61
2023/04/04 05:10:12;;;;;;;8.90;5.85;;;1.50;99.90;;;;;;5046652;28;20037;-62
2023/04/04 05:12:43;;;;;;;8.45;4.38;;;1.50;99.90;;;;;;5047897;28;20048;-61
2023/04/04 05:15:10;;;;;;;9.02;5.13;;;1.50;99.90;;;;;;5028396;28;20052;-62
2023/04/04 05:17:36;;;;;;;11.32;5.90;;;1.50;99.90;;;;;;5027020;28;20048;-60
2023/04/04 05:20:02;;;;;;;7.63;5.13;;;1.50;99.90;;;;;;5048237;28;20404;-61
2023/04/04 05:22:28;;;;;;;7.72;5.30;;;1.50;99.90;;;;;;5050474;28;20041;-61
2023/04/04 05:24:53;;;;;;;9.60;6.15;;;1.50;99.90;;;;;;5014794;28;20037;-61
2023/04/04 05:27:19;;;;;;;8.55;4.78;;;1.50;99.90;;;;;;5015215;28;20061;-61
2023/04/04 05:29:47;;;;;;;10.68;5.85;;;1.50;99.90;;;;;;5046455;28;20519;-62
2023/04/04 05:32:13;;;;;;;8.98;5.65;;;1.50;99.90;;;;;;5029383;28;20049;-62
2023/04/04 05:34:39;;;;;;;10.55;5.20;;;1.50;99.90;;;;;;5033351;28;20125;-62
2023/04/04 05:37:04;;;;;;;12.60;5.45;;;1.50;99.90;;;;;;5049338;28;20056;-61
2023/04/04 05:39:30;;;;;;;10.90;5.93;;;1.50;99.90;;;;;;5036745;28;20049;-62
2023/04/04 05:41:56;;;;;;;8.85;5.15;;;1.50;99.90;;;;;;5050355;28;20041;-62
2023/04/04 05:44:22;;;;;;;11.88;5.70;;;1.50;99.90;;;;;;5048020;28;20387;-61
2023/04/04 05:46:47;;;;;;;8.77;6.00;;;1.50;99.90;;;;;;5029618;28;20037;-61
2023/04/04 05:49:13;;;;;;;11.93;5.20;;;1.50;99.90;;;;;;5033529;28;20043;-60
2023/04/04 05:51:39;;;;;;;9.52;5.82;;;1.60;99.90;;;;;;5038746;28;20076;-62
2023/04/04 05:54:08;;;;;;;11.80;6.10;;;1.60;99.90;;;;;;5041674;28;20035;-61
2023/04/04 05:56:34;;;;;;;8.93;5.50;;;1.70;99.90;;;;;;5028549;28;20037;-62
2023/04/04 05:59:01;;;;;;;10.30;6.43;;;1.70;99.90;;;;;;5029122;28;20049;-60
2023/04/04 06:01:28;;;;;;;9.68;5.80;;;1.80;99.90;;;;;;5043318;28;20052;-60
2023/04/04 06:03:55;;;;;;;9.35;6.13;;;1.90;99.90;;;;;;5048233;28;20079;-62
2023/04/04 06:06:21;;;;;;;9.73;5.75;;;1.90;99.90;;;;;;5008559;28;20050;-62
2023/04/04 06:08:46;;;;;;;10.20;5.55;;;1.90;99.90;;;;;;5036230;28;20033;-60
2023/04/04 06:11:12;;;;;;;9.68;6.05;;;1.90;99.90;;;;;;5029949;28;20617;-61
2023/04/04 06:13:38;;;;;;;10.65;5.75;;;2.00;99.90;;;;;;5031989;28;20051;-62
2023/04/04 06:16:05;;;;;;;10.48;4.90;;;2.00;99.90;;;;;;5050785;28;20442;-61
2023/04/04 06:18:30;;;;;;;11.45;5.50;;;2.00;99.90;;;;;;5028616;28;20496;-59
2023/04/04 06:20:56;;;;;;;12.20;5.75;;;2.10;99.90;;;;;;5043188;28;20043;-61
2023/04/04 06:23:22;;;;;;;9.93;4.72;;;2.10;99.90;;;;;;5015096;28;20481;-60
2023/04/04 06:25:48;;;;;;;8.70;5.25;;;2.10;99.90;;;;;;5037508;28;20128;-61
2023/04/04 06:28:15;;;;;;;9.13;5.80;;;2.20;99.90;;;;;;5025053;28;20103;-61
2023/04/04 06:30:43;;;;;;;8.40;4.75;;;2.30;99.90;;;;;;5026865;28;20051;-61
2023/04/04 06:33:09;;;;;;;7.07;4.40;;;2.30;99.90;;;;;;5017594;28;20041;-61
2023/04/04 06:35:35;;;;;;;8.90;5.32;;;2.30;99.90;;;;;;5049086;28;20467;-61
2023/04/04 06:38:03;;;;;;;10.25;5.25;;;2.40;99.90;;;;;;5041378;28;20062;-61
2023/04/04 06:40:29;;;;;;;8.32;4.88;;;2.40;99.90;;;;;;5020788;28;20625;-60
2023/04/04 06:42:57;;;;;;;11.98;5.57;;;2.50;99.90;;;;;;5031539;28;20039;-60
2023/04/04 06:45:23;;;;;;;11.43;5.20;;;2.50;99.90;;;;;;5032468;28;20127;-62
2023/04/04 06:47:52;;;;;;;8.55;4.93;;;2.50;99.90;;;;;;5028652;28;20037;-62
2023/04/04 06:50:18;;;;;;;11.88;5.03;;;2.60;99.90;;;;;;5030319;28;20546;-61
2023/04/04 06:52:44;;;;;;;8.90;5.03;;;2.70;99.90;;;;;;5046373;28;20039;-61
2023/04/04 06:55:10;;;;;;;11.02;5.00;;;2.80;99.90;;;;;;5023087;28;20124;-61
2023/04/04 06:57:38;;;;;;;9.93;4.55;;;2.90;99.90;;;;;;5042028;28;20049;-61
2023/04/04 07:00:04;;;;;;;8.27;3.92;;;3.00;99.90;;;;;;5045972;28;20116;-60
2023/04/04 07:02:30;;;;;;;10.57;5.13;;;3.10;99.90;;;;;;5046818;28;20502;-62
2023/04/04 07:04:56;;;;;;;9.05;4.15;;;3.10;99.90;;;;;;5041560;28;20045;-59
2023/04/04 07:07:22;;;;;;;8.20;4.28;;;3.20;99.90;;;;;;5028256;28;20680;-59
2023/04/04 07:09:47;;;;;;;8.73;4.43;;;3.30;99.90;;;;;;5052550;28;20642;-62
2023/04/04 07:12:13;;;;;;;9.35;5.05;;;3.40;99.90;;;;;;5027102;28;20095;-62
2023/04/04 07:14:39;;;;;;;8.93;4.45;;;3.70;99.90;;;;;;5026361;28;20404;-61
2023/04/04 07:17:05;;;;;;;8.32;4.32;;;3.70;99.90;;;;;;5027307;28;20041;-62
2023/04/04 07:19:30;;;;;;;9.45;4.10;;;3.70;99.90;;;;;;5026259;28;20049;-61
2023/04/04 07:21:56;;;;;;;7.25;4.90;;;3.70;99.90;;;;;;5045183;28;20567;-62
2023/04/04 07:24:22;;;;;;;9.40;4.03;;;3.80;99.90;;;;;;5042719;28;20044;-61
2023/04/04 07:26:48;;;;;;;6.68;4.43;;;3.90;99.90;;;;;;5028052;28;20124;-62
2023/04/04 07:29:13;;;;;;;7.88;4.88;;;4.10;99.90;;;;;;5023676;28;20049;-61
2023/04/04 07:31:39;;;;;;;7.20;4.20;;;4.10;99.90;;;;;;5026200;28;20045;-59
2023/04/04 07:34:06;;;;;;;9.02;4.18;;;4.10;99.90;;;;;;5027926;28;20037;-61
2023/04/04 07:36:31;;;;;;;7.20;3.92;;;4.20;99.90;;;;;;5032708;28;20166;-62
2023/04/04 07:38:57;;;;;;;6.15;3.85;;;4.30;99.90;;;;;;5055917;28;20144;-62
2023/04/04 07:41:24;;;;;;;9.73;4.53;;;4.40;99.90;;;;;;5015031;28;20029;-62
2023/04/04 07:43:50;;;;;;;9.25;4.30;;;4.50;99.90;;;;;;5025723;28;20045;-61
2023/04/04 07:46:16;;;;;;;8.30;4.57;;;4.50;99.90;;;;;;5040046;28;20582;-60
2023/04/04 07:48:43;;;;;;;9.05;4.38;;;4.60;99.90;;;;;;5026989;28;20052;-61
2023/04/04 07:51:08;;;;;;;8.90;4.22;;;4.70;99.90;;;;;;5044084;28;20072;-62
2023/04/04 07:53:34;;;;;;;8.45;3.72;;;4.80;99.90;;;;;;5044942;28;20065;-60
2023/04/04 07:56:05;;;;;;;7.60;4.18;;;5.00;99.90;;;;;;5047162;28;20041;-62
2023/04/04 07:58:34;;;;;;;9.07;3.38;;;5.20;99.90;;;;;;5023922;28;20098;-61
2023/04/04 08:01:02;;;;;;;7.80;3.70;;;5.50;99.90;;;;;;5043397;28;20055;-62
2023/04/04 08:03:28;;;;;;;7.85;3.67;;;5.70;99.90;;;;;;5024652;28;21227;-62
2023/04/04 08:05:54;;;;;;;5.13;2.90;;;5.90;99.90;;;;;;5043394;28;20037;-61
2023/04/04 08:08:20;;;;;;;8.40;3.28;;;6.00;99.90;;;;;;5024678;28;20320;-61
2023/04/04 08:10:46;;;;;;;5.70;2.90;;;6.20;99.90;;;;;;5031522;28;20081;-62
2023/04/04 08:13:12;;;;;;;6.72;2.42;;;6.30;99.90;;;;;;5007556;28;20068;-61
2023/04/04 08:15:38;;;;;;;6.50;2.70;;;6.30;99.90;;;;;;5026865;28;20539;-61
2023/04/04 08:18:04;;;;;;;6.20;3.10;;;6.20;99.90;;;;;;5049551;28;20037;-62
2023/04/04 08:20:30;;;;;;;8.85;3.17;;;6.20;99.90;;;;;;5008431;28;20057;-62
2023/04/04 08:22:57;;;;;;;5.38;2.60;;;6.30;99.90;;;;;;5025633;28;20040;-62
2023/04/04 08:25:23;;;;;;;5.95;2.53;;;6.30;99.90;;;;;;5027108;28;20067;-62
2023/04/04 08:27:49;;;;;;;6.15;3.08;;;6.40;99.90;;;;;;5027657;28;20417;-63
2023/04/04 08:30:15;;;;;;;5.68;2.78;;;6.50;99.90;;;;;;5020625;28;20045;-62
2023/04/04 08:32:43;;;;;;;7.35;2.85;;;6.70;99.90;;;;;;5026772;28;20453;-62
2023/04/04 08:35:09;;;;;;;7.20;2.83;;;6.80;99.90;;;;;;5040148;28;20041;-61
2023/04/04 08:37:38;;;;;;;5.68;2.58;;;7.00;99.90;;;;;;5038180;28;20516;-62
2023/04/04 08:40:05;;;;;;;6.47;3.03;;;7.20;99.90;;;;;;5044549;28;20466;-62
2023/04/04 08:42:35;;;;;;;4.75;2.45;;;7.40;99.90;;;;;;5040140;28;20099;-62
2023/04/04 08:45:03;;;;;;;3.92;2.30;;;7.50;99.90;;;;;;5039807;28;20034;-62
2023/04/04 08:47:32;;;;;;;7.00;2.58;;;7.50;99.90;;;;;;5037935;28;20076;-62
2023/04/04 08:50:00;;;;;;;5.95;2.85;;;7.50;99.90;;;;;;5010843;28;20044;-61
2023/04/04 08:52:27;;;;;;;4.75;2.20;;;7.70;99.90;;;;;;5027553;28;20044;-62
2023/04/04 08:54:54;;;;;;;5.72;2.45;;;7.90;99.90;;;;;;5040777;28;20077;-62
2023/04/04 08:57:20;;;;;;;7.55;2.85;;;8.00;99.90;;;;;;5034607;28;20041;-62
2023/04/04 08:59:47;;;;;;;4.32;2.08;;;8.00;99.70;;;;;;5052726;28;20182;-61
2023/04/04 09:02:22;;;;;;;6.75;2.28;;;7.90;99.80;;;;;;5044258;28;20499;-62
2023/04/04 09:04:49;;;;;;;6.45;3.08;;;7.80;98.60;;;;;;5045241;28;20108;-61
2023/04/04 09:07:15;;;;;;;7.47;2.63;;;7.90;99.40;;;;;;5038927;28;20112;-61
2023/04/04 09:09:45;;;;;;;4.60;2.33;;;8.00;99.20;;;;;;5011309;28;20049;-62
2023/04/04 09:12:13;;;;;;;4.20;2.15;;;8.20;98.90;;;;;;5022689;28;20424;-61
2023/04/04 09:14:40;;;;;;;6.15;2.00;;;8.40;98.20;;;;;;5026640;28;20037;-62
2023/04/04 09:17:09;;;;;;;6.78;2.50;;;8.40;98.20;;;;;;5040731;28;20053;-61
2023/04/04 09:19:37;;;;;;;8.13;2.22;;;8.50;98.00;;;;;;5008509;28;20435;-60
2023/04/04 09:22:08;;;;;;;6.18;2.58;;;8.70;98.20;;;;;;5043763;28;20040;-62
2023/04/04 09:24:41;;;;;;;4.65;2.10;;;9.00;98.50;;;;;;5041826;28;20082;-60
2023/04/04 09:27:09;;;;;;;5.00;2.42;;;9.10;97.80;;;;;;5033287;28;20111;-61
2023/04/04 09:29:38;;;;;;;3.80;1.77;;;9.20;97.80;;;;;;5008641;28;20048;-62
2023/04/04 09:32:12;;;;;;;4.32;1.75;;;9.30;96.80;;;;;;5042531;28;20078;-62
2023/04/04 09:34:39;;;;;;;3.90;1.80;;;9.40;96.40;;;;;;5009905;28;20104;-61
2023/04/04 09:37:06;;;;;;;4.60;1.90;;;9.50;96.50;;;;;;5048865;28;20080;-61
2023/04/04 09:39:33;;;;;;;6.10;1.98;;;9.50;95.40;;;;;;5024269;28;20064;-61
2023/04/04 09:42:00;;;;;;;6.10;1.88;;;9.40;94.00;;;;;;5039926;28;20117;-62
2023/04/04 09:44:28;;;;;;;4.78;2.10;;;9.40;94.00;;;;;;5042888;28;20124;-65
2023/04/04 09:47:22;;;;;;;12.38;2.42;;;9.60;95.10;;;;;;5030017;28;20033;-62
2023/04/04 09:49:48;;;;;;;7.30;2.50;;;9.80;95.80;;;;;;5044224;28;20168;-60
2023/04/04 09:52:19;;;;;;;9.05;2.80;;;10.00;94.00;;;;;;5039184;28;20390;-61
2023/04/04 09:54:53;;;;;;;7.85;2.65;;;9.90;94.40;;;;;;5044918;28;20044;-61
2023/04/04 09:57:19;;;;;;;;;;;9.90;94.50;;;;;;5024621;28;20049;-62
2023/04/04 09:59:45;;;;;;;4.45;2.15;;;9.80;92.40;;;;;;5027803;28;19927;-60
2023/04/04 10:02:11;;;;;;;6.88;2.38;;;9.90;94.20;;;;;;5022729;28;20048;-61
2023/04/04 10:04:37;;;;;;;5.68;2.28;;;10.10;93.90;;;;;;5026933;28;20036;-61
2023/04/04 10:07:03;;;;;;;5.55;2.47;;;10.00;93.30;;;;;;5021030;28;20045;-61
2023/04/04 10:09:28;;;;;;;6.13;2.33;;;10.00;93.40;;;;;;5021730;28;20057;-62
2023/04/04 10:12:10;;;;;;;6.35;2.45;;;9.80;93.80;;;;;;5007174;28;20041;-62
2023/04/04 10:14:36;;;;;;;7.10;2.35;;;9.90;92.70;;;;;;5034750;28;20115;-61
2023/04/04 10:17:09;;;;;;;5.35;2.42;;;10.00;93.70;;;;;;5037169;28;20464;-61
2023/04/04 10:19:38;;;;;;;3.72;2.13;;;10.10;92.40;;;;;;5026476;28;20533;-62
2023/04/04 10:22:08;;;;;;;5.95;2.55;;;10.20;93.30;;;;;;5041259;28;20148;-61
2023/04/04 10:24:35;;;;;;;6.82;3.30;;;10.40;93.60;;;;;;5024099;28;20095;-62
2023/04/04 10:27:01;;;;;;;10.10;3.20;;;10.40;92.00;;;;;;5019279;28;20045;-61
2023/04/04 10:29:26;;;;;;;6.15;2.53;;;10.30;91.90;;;;;;5044182;28;20047;-61
2023/04/04 10:32:04;;;;;;;8.80;2.92;;;10.30;92.10;;;;;;5004059;28;20053;-62
2023/04/04 10:34:43;;;;;;;7.25;3.30;;;10.50;92.50;;;;;;5046304;28;20122;-62
2023/04/04 10:37:19;;;;;;;8.32;3.45;;;10.80;91.20;;;;;;5022318;28;20029;-62
2023/04/04 10:39:59;;;;;;;6.10;3.00;;;10.90;91.50;;;;;;5026604;28;20183;-63
2023/04/04 10:42:30;;;;;;;7.78;2.55;;;11.10;90.70;;;;;;5020681;28;20042;-62
2023/04/04 10:44:57;;;;;;;4.28;2.28;;;11.00;88.80;;;;;;5042636;28;20033;-62
2023/04/04 10:47:25;;;;;;;4.55;2.22;;;10.90;91.00;;;;;;5019694;28;20048;-62
2023/04/04 10:49:51;;;;;;;8.00;2.30;;;11.00;90.70;;;;;;5009908;28;20519;-59
2023/04/04 10:52:22;;;;;;;7.55;2.67;;;11.10;90.60;;;;;;5042947;28;20033;-61
2023/04/04 10:54:54;;;;;;;4.18;2.65;;;11.20;90.60;;;;;;5038010;28;20040;-62
2023/04/04 10:57:20;;;;;;;6.68;3.30;;;11.50;90.90;;;;;;5022738;28;20045;-62
2023/04/04 11:00:06;;;;;;;8.23;2.60;;;11.70;90.30;;;;;;5040846;28;20037;-62
2023/04/04 11:02:54;;;;;;;4.30;2.45;;;11.80;90.70;;;;;;5019653;28;20052;-62
2023/04/04 11:05:32;;;;;;;6.18;2.80;;;12.10;90.60;;;;;;5043837;28;20703;-61
2023/04/04 11:08:05;;;;;;;6.72;3.63;;;12.20;90.50;;;;;;5018380;28;20076;-61
2023/04/04 11:10:35;;;;;;;6.30;3.13;;;12.40;90.40;;;;;;5035285;28;20059;-60
2023/04/04 11:13:10;;;;;;;6.53;3.53;;;12.60;90.20;;;;;;5037229;28;20040;-61
2023/04/04 11:15:59;;;;;;;7.13;3.45;;;12.60;86.10;;;;;;5036256;28;20405;-62
2023/04/04 11:18:31;;;;;;;8.73;3.15;;;12.40;87.00;;;;;;5034424;28;20068;-62
2023/04/04 11:21:00;;;;;;;6.57;3.22;;;12.20;86.90;;;;;;5022608;28;20044;-62
2023/04/04 11:23:27;;;;;;;7.72;3.40;;;12.20;86.80;;;;;;5037455;28;20132;-62
2023/04/04 11:25:54;;;;;;;5.03;3.05;;;11.90;86.80;;;;;;5037728;28;20060;-61
2023/04/04 11:28:32;;;;;;;6.18;3.22;;;11.90;85.70;;;;;;5021228;28;20064;-62
2023/04/04 11:31:22;;;;;;;5.75;2.90;;;11.90;86.90;;;;;;5041226;28;20535;-61
2023/04/04 11:34:07;;;;;;;5.72;2.67;;;12.00;87.20;;;;;;5033045;28;20063;-61
2023/04/04 11:36:36;;;;;;;8.48;3.13;;;12.10;86.70;;;;;;5033060;28;20106;-62
2023/04/04 11:39:14;;;;;;;5.95;3.17;;;12.20;86.30;;;;;;5032521;28;20511;-60
2023/04/04 11:41:57;;;;;;;5.50;3.20;;;12.20;82.50;;;;;;5034226;28;20029;-62
2023/04/04 11:44:30;;;;;;;5.65;2.92;;;12.10;84.40;;;;;;5045173;28;20508;-61
2023/04/04 11:47:10;;;;;;;4.97;2.72;;;12.10;82.20;;;;;;5012400;28;20159;-62
2023/04/04 11:49:38;;;;;;;6.25;3.22;;;12.00;83.10;;;;;;5034350;28;20036;-62
2023/04/04 11:52:16;;;;;;;5.25;2.55;;;12.10;83.30;;;;;;5019660;28;20619;-61
2023/04/04 11:54:44;;;;;;;16.13;3.92;;;11.90;82.50;;;;;;5025791;28;20447;-61
2023/04/04 11:57:13;;;;;;;5.95;3.25;;;12.00;83.80;;;;;;5042455;28;20632;-61
2023/04/04 11:59:41;;;;;;;6.68;3.05;;;12.00;83.60;;;;;;5036824;28;20040;-61
2023/04/04 12:02:11;;;;;;;6.50;2.83;;;12.00;83.50;;;;;;5036829;28;20619;-61
2023/04/04 12:04:39;;;;;;;5.70;2.92;;;11.90;82.80;;;;;;5046630;28;20045;-61
2023/04/04 12:07:09;;;;;;;7.28;3.35;;;11.90;83.10;;;;;;5044333;28;20029;-62
2023/04/04 12:09:35;;;;;;;6.30;3.22;;;12.20;83.50;;;;;;5040799;28;20385;-62
2023/04/04 12:12:02;;;;;;;6.25;2.97;;;12.40;83.30;;;;;;5039506;28;20072;-62
2023/04/04 12:14:28;;;;;;;10.77;3.22;;;12.20;82.70;;;;;;5045225;28;20666;-62
2023/04/04 12:16:55;;;;;;;5.68;3.03;;;12.20;82.90;;;;;;5012526;28;20037;-62
2023/04/04 12:19:26;;;;;;;7.00;3.00;;;12.40;83.70;;;;;;5010321;28;20114;-61
2023/04/04 12:21:53;;;;;;;6.13;3.45;;;12.50;82.20;;;;;;5032611;28;20624;-61
2023/04/04 12:24:19;;;;;;;4.85;2.85;;;12.50;81.50;;;;;;5028483;28;20049;-61
2023/04/04 12:26:47;;;;;;;5.70;3.00;;;12.30;81.90;;;;;;5030400;28;20450;-62
2023/04/04 12:29:15;;;;;;;6.10;2.72;;;12.20;82.00;;;;;;5042510;28;20041;-62
2023/04/04 12:31:43;;;;;;;8.65;3.45;;;12.30;82.80;;;;;;5056613;28;20040;-61
2023/04/04 12:34:21;;;;;;;4.22;2.97;;;12.50;83.80;;;;;;5026448;28;20512;-62
2023/04/04 12:36:55;;;;;;;5.30;2.70;;;12.50;82.00;;;;;;5037874;28;20751;-61
2023/04/04 12:39:21;;;;;;;;;;;12.50;79.90;;;;;;5042597;28;20080;-62
2023/04/04 12:41:47;;;;;;;5.60;3.47;;;12.40;80.50;;;;;;5050826;28;20019;-61
2023/04/04 12:44:26;;;;;;;6.18;2.78;;;12.50;81.70;;;;;;5031980;28;20045;-62
2023/04/04 12:46:57;;;;;;;4.10;2.50;;;12.30;81.60;;;;;;5045208;28;20041;-61
2023/04/04 12:49:26;;;;;;;8.35;3.30;;;12.40;81.50;;;;;;5029214;28;20392;-64
2023/04/04 12:51:53;;;;;;;6.03;3.20;;;12.40;81.40;;;;;;5046513;28;20127;-62
2023/04/04 12:54:34;;;;;;;4.50;2.90;;;12.30;81.90;;;;;;5044062;28;20045;-61
2023/04/04 12:57:04;;;;;;;5.18;2.78;;;12.30;80.50;;;;;;5030440;28;20098;-61